Time;durP1;ratioP1;P1;durP2;ratioP2;P2;SDS_P1;SDS_P2;PMS_P1;PMS_P2;Temp;Humidity;BMP_temperature;BMP_pressure;BME280_temperature;BME280_humidity;BME280_pressure;Samples;Min_cycle;Max_cycle;Signal;HPM_P1;HPM_P2
2023/04/07 00:00:17;;;;;;;10.57;5.15;;;12.20;75.70;;;;;;4967941;28;20484;-85
2023/04/07 00:02:43;;;;;;;8.27;4.93;;;12.20;75.70;;;;;;4966197;29;20062;-84
2023/04/07 00:05:08;;;;;;;7.45;4.82;;;12.20;75.70;;;;;;4968197;29;20057;-84
2023/04/07 00:07:34;;;;;;;7.88;5.10;;;12.20;75.60;;;;;;4968375;29;20031;-83
2023/04/07 00:10:00;;;;;;;8.23;5.00;;;12.20;75.70;;;;;;4966488;29;20023;-83
2023/04/07 00:12:25;;;;;;;7.22;5.00;;;12.20;75.70;;;;;;4966071;29;20404;-83
2023/04/07 00:14:51;;;;;;;7.60;4.72;;;12.30;75.70;;;;;;4966528;29;20027;-82
2023/04/07 00:17:16;;;;;;;7.70;4.95;;;12.20;75.70;;;;;;4963580;29;20363;-83
2023/04/07 00:19:42;;;;;;;9.15;5.43;;;12.20;75.80;;;;;;4958905;29;20113;-83
2023/04/07 00:22:08;;;;;;;8.25;5.30;;;12.20;75.50;;;;;;4957689;29;20131;-84
2023/04/07 00:24:34;;;;;;;7.65;4.82;;;12.20;75.80;;;;;;4962301;29;20500;-85
2023/04/07 00:26:59;;;;;;;7.40;5.03;;;12.10;75.60;;;;;;4962802;29;20051;-84
2023/04/07 00:29:25;;;;;;;9.20;5.88;;;12.20;75.70;;;;;;4960940;29;20030;-82
2023/04/07 00:31:50;;;;;;;8.77;5.18;;;12.20;75.80;;;;;;4944730;29;20476;-82
2023/04/07 00:34:16;;;;;;;8.40;5.45;;;12.20;75.80;;;;;;4961489;29;20039;-84
2023/04/07 00:36:41;;;;;;;8.00;5.25;;;12.20;75.80;;;;;;4960649;29;20037;-84
2023/04/07 00:39:07;;;;;;;8.77;5.78;;;12.20;75.80;;;;;;4960406;29;20023;-83
2023/04/07 00:41:35;;;;;;;8.30;5.45;;;12.20;75.70;;;;;;4955654;29;20027;-83
2023/04/07 00:44:01;;;;;;;8.27;5.65;;;12.20;75.60;;;;;;4957868;28;20020;-85
2023/04/07 00:46:27;;;;;;;8.63;5.75;;;12.20;75.70;;;;;;4958228;29;20035;-84
2023/04/07 00:48:53;;;;;;;9.20;5.63;;;12.20;75.80;;;;;;4958085;29;20024;-83
2023/04/07 00:51:21;;;;;;;9.07;5.47;;;12.20;76.00;;;;;;4959120;29;20373;-83
2023/04/07 00:53:48;;;;;;;7.90;5.22;;;12.20;75.70;;;;;;4957299;29;20031;-83
2023/04/07 00:56:13;;;;;;;7.93;5.20;;;12.20;75.90;;;;;;4958784;29;20027;-83
2023/04/07 00:58:39;;;;;;;8.43;5.40;;;12.20;76.00;;;;;;4957289;29;20550;-83
2023/04/07 01:01:15;;;;;;;9.25;5.57;;;12.20;76.00;;;;;;4940360;29;20027;-83
2023/04/07 01:04:19;;;;;;;8.75;6.13;;;12.20;75.90;;;;;;4956033;29;20034;-83
2023/04/07 01:06:49;;;;;;;9.15;5.80;;;12.20;75.80;;;;;;4955955;29;20055;-83
2023/04/07 01:09:53;;;;;;;9.15;5.28;;;12.20;75.90;;;;;;4955658;29;20031;-82
2023/04/07 01:12:31;;;;;;;8.98;5.90;;;12.20;75.90;;;;;;4930129;29;20027;-83
2023/04/07 01:15:09;;;;;;;8.50;5.35;;;12.20;75.90;;;;;;4939987;29;20079;-83
2023/04/07 01:17:42;;;;;;;9.25;5.95;;;12.20;75.90;;;;;;4957144;29;20437;-83
2023/04/07 01:20:12;;;;;;;8.52;5.20;;;12.20;75.90;;;;;;4954783;29;20035;-83
2023/04/07 01:22:45;;;;;;;7.93;5.28;;;12.20;76.00;;;;;;4955069;29;20027;-83
2023/04/07 01:25:33;;;;;;;8.43;5.72;;;12.20;75.90;;;;;;4939880;29;20027;-83
2023/04/07 01:28:26;;;;;;;8.95;5.90;;;12.20;75.80;;;;;;4911428;29;20066;-84
2023/04/07 01:30:55;;;;;;;10.13;6.15;;;12.20;75.90;;;;;;4939046;29;20027;-83
2023/04/07 01:33:22;;;;;;;9.23;6.22;;;12.20;76.00;;;;;;4954698;29;20481;-83
2023/04/07 01:35:49;;;;;;;8.30;5.88;;;12.20;76.00;;;;;;4957790;29;20062;-82
2023/04/07 01:38:16;;;;;;;9.05;6.05;;;12.10;76.00;;;;;;4956995;29;20539;-83
2023/04/07 01:40:42;;;;;;;8.98;5.80;;;12.20;76.50;;;;;;4956783;29;20027;-83
2023/04/07 01:43:08;;;;;;;8.70;5.72;;;12.20;76.00;;;;;;4955016;29;20094;-81
2023/04/07 01:45:35;;;;;;;9.00;6.18;;;12.20;76.00;;;;;;4955417;29;20027;-83
2023/04/07 01:48:04;;;;;;;8.48;5.70;;;12.20;75.70;;;;;;4955089;29;20397;-83
2023/04/07 01:50:30;;;;;;;9.32;6.00;;;12.20;76.00;;;;;;4939527;29;20033;-83
2023/04/07 01:52:56;;;;;;;8.77;5.85;;;12.10;76.00;;;;;;4939606;29;20027;-83
2023/04/07 01:55:22;;;;;;;9.13;6.32;;;12.20;76.10;;;;;;4954440;28;20023;-83
2023/04/07 01:57:47;;;;;;;8.15;5.13;;;12.20;75.80;;;;;;4955403;29;20023;-83
2023/04/07 02:00:13;;;;;;;8.10;5.50;;;12.20;75.80;;;;;;4954540;29;20031;-82
2023/04/07 02:02:42;;;;;;;8.90;5.82;;;12.20;76.10;;;;;;4955450;29;20027;-83
2023/04/07 02:05:16;;;;;;;8.63;5.22;;;12.10;76.10;;;;;;4954195;29;20033;-83
2023/04/07 02:08:03;;;;;;;8.45;5.40;;;12.10;76.00;;;;;;4940212;29;20382;-83
2023/04/07 02:10:31;;;;;;;8.70;5.72;;;12.10;75.90;;;;;;4938354;29;20028;-82
2023/04/07 02:12:59;;;;;;;8.38;5.25;;;12.20;76.10;;;;;;4954394;29;20077;-83
2023/04/07 02:15:26;;;;;;;8.82;5.63;;;12.10;76.00;;;;;;4943285;29;20031;-85
2023/04/07 02:17:53;;;;;;;9.32;6.00;;;12.10;75.90;;;;;;4953696;29;20054;-85
2023/04/07 02:20:20;;;;;;;7.93;5.20;;;12.10;76.10;;;;;;4969068;29;20031;-84
2023/04/07 02:22:46;;;;;;;8.02;5.53;;;12.20;76.10;;;;;;4952939;29;20038;-83
2023/04/07 02:25:38;;;;;;;8.45;5.38;;;12.10;76.00;;;;;;4968152;29;20503;-84
2023/04/07 02:28:05;;;;;;;8.18;5.68;;;12.10;76.00;;;;;;4947727;29;20121;-84
2023/04/07 02:30:31;;;;;;;8.02;5.35;;;12.20;76.20;;;;;;4966026;29;20019;-83
2023/04/07 02:32:56;;;;;;;8.35;5.63;;;12.10;76.10;;;;;;4964192;28;20035;-82
2023/04/07 02:35:22;;;;;;;7.90;5.38;;;12.10;76.00;;;;;;4954701;29;20113;-83
2023/04/07 02:37:48;;;;;;;7.55;5.20;;;12.10;76.00;;;;;;4922065;29;20388;-86
2023/04/07 02:40:14;;;;;;;8.02;5.22;;;12.10;75.90;;;;;;4944303;29;20099;-82
2023/04/07 02:42:40;;;;;;;7.80;5.40;;;12.00;76.00;;;;;;4934353;29;20031;-84
2023/04/07 02:45:07;;;;;;;7.47;5.10;;;12.10;76.00;;;;;;4943578;29;20079;-83
2023/04/07 02:47:34;;;;;;;7.35;4.97;;;12.10;76.10;;;;;;4944493;29;20027;-83
2023/04/07 02:49:59;;;;;;;8.35;5.15;;;12.10;76.00;;;;;;4944411;29;20485;-84
2023/04/07 02:52:25;;;;;;;7.63;5.22;;;12.10;76.00;;;;;;4943107;29;20074;-84
2023/04/07 02:54:51;;;;;;;8.15;5.32;;;12.10;76.10;;;;;;4922176;29;20102;-81
2023/04/07 02:57:16;;;;;;;7.97;5.35;;;12.10;76.20;;;;;;4936465;29;20562;-83
2023/04/07 02:59:42;;;;;;;7.93;5.05;;;12.10;76.20;;;;;;4935809;29;20034;-83
2023/04/07 03:02:07;;;;;;;8.23;5.10;;;12.10;76.20;;;;;;4942055;29;20081;-86
2023/04/07 03:04:33;;;;;;;9.13;5.53;;;12.10;76.20;;;;;;4942509;29;20099;-84
2023/04/07 03:06:59;;;;;;;7.70;4.93;;;12.10;76.20;;;;;;4945752;29;20055;-85
2023/04/07 03:09:25;;;;;;;8.02;5.30;;;12.10;76.20;;;;;;4955741;29;20023;-84
2023/04/07 03:11:51;;;;;;;7.65;4.85;;;12.20;76.30;;;;;;4955759;29;20063;-84
2023/04/07 03:14:16;;;;;;;7.35;4.88;;;12.10;76.10;;;;;;4957586;29;20035;-84
2023/04/07 03:16:42;;;;;;;7.65;4.95;;;12.10;76.20;;;;;;4940883;29;20031;-84
2023/04/07 03:19:08;;;;;;;7.82;4.85;;;12.10;76.20;;;;;;4956163;29;20507;-84
2023/04/07 03:21:35;;;;;;;8.55;5.90;;;12.10;76.20;;;;;;4955172;29;20051;-83
2023/04/07 03:24:01;;;;;;;8.35;5.32;;;12.10;76.20;;;;;;4955792;29;20032;-83
2023/04/07 03:26:26;;;;;;;8.25;5.25;;;12.10;76.20;;;;;;4955664;29;20032;-83
2023/04/07 03:28:52;;;;;;;7.63;4.95;;;12.10;76.30;;;;;;4952902;29;20578;-84
2023/04/07 03:31:17;;;;;;;7.78;5.03;;;12.10;76.30;;;;;;4952221;29;20027;-83
2023/04/07 03:33:43;;;;;;;7.18;4.75;;;12.10;76.30;;;;;;4950171;29;20038;-84
2023/04/07 03:36:08;;;;;;;7.38;4.90;;;12.10;76.30;;;;;;4948550;29;20026;-83
2023/04/07 03:38:34;;;;;;;6.85;4.50;;;12.10;76.30;;;;;;4948908;29;20024;-83
2023/04/07 03:41:00;;;;;;;8.02;5.05;;;12.10;76.30;;;;;;4948092;29;20023;-83
2023/04/07 03:43:26;;;;;;;7.57;4.80;;;12.00;76.30;;;;;;4948654;29;20023;-84
2023/04/07 03:45:54;;;;;;;7.55;5.00;;;12.10;76.30;;;;;;4946771;29;20730;-84
2023/04/07 03:48:20;;;;;;;7.20;4.50;;;12.10;76.30;;;;;;4931447;29;20023;-84
2023/04/07 03:50:46;;;;;;;6.88;4.63;;;12.10;76.30;;;;;;4945382;29;20032;-83
2023/04/07 03:53:14;;;;;;;7.10;4.45;;;12.10;76.30;;;;;;4930271;29;20398;-82
2023/04/07 03:55:40;;;;;;;7.70;4.80;;;12.10;76.30;;;;;;4929337;29;20028;-83
2023/04/07 03:58:06;;;;;;;7.15;4.68;;;12.10;76.30;;;;;;4947760;29;20693;-83
2023/04/07 04:00:32;;;;;;;7.50;4.60;;;12.10;76.30;;;;;;4948222;29;20027;-84
2023/04/07 04:02:58;;;;;;;7.82;4.95;;;12.10;76.40;;;;;;4929000;29;20099;-83
2023/04/07 04:05:24;;;;;;;6.82;4.53;;;12.10;76.40;;;;;;4941342;29;20024;-83
2023/04/07 04:07:51;;;;;;;7.00;4.70;;;12.10;76.40;;;;;;4944064;29;20505;-84
2023/04/07 04:10:17;;;;;;;7.28;4.53;;;12.10;76.40;;;;;;4944188;29;20063;-83
2023/04/07 04:12:43;;;;;;;7.57;4.90;;;12.10;76.40;;;;;;4941199;29;20425;-82
2023/04/07 04:15:09;;;;;;;7.25;4.57;;;12.10;76.50;;;;;;4945557;29;20039;-84
2023/04/07 04:17:35;;;;;;;6.82;4.13;;;12.10;76.40;;;;;;4945692;29;20056;-83
2023/04/07 04:20:00;;;;;;;7.50;5.03;;;12.10;76.40;;;;;;4940542;29;20059;-85
2023/04/07 04:22:26;;;;;;;7.15;4.70;;;12.10;76.50;;;;;;4939851;29;20023;-83
2023/04/07 04:24:51;;;;;;;7.35;4.57;;;12.10;76.50;;;;;;4941756;29;20020;-82
2023/04/07 04:27:17;;;;;;;6.75;4.15;;;12.10;76.50;;;;;;4940820;29;20040;-80
2023/04/07 04:29:42;;;;;;;6.70;4.28;;;12.10;76.50;;;;;;4921592;29;20038;-83
2023/04/07 04:32:07;;;;;;;7.28;4.60;;;12.10;77.00;;;;;;4923506;29;20110;-84
2023/04/07 04:34:33;;;;;;;6.40;4.00;;;12.10;76.50;;;;;;4924737;29;20030;-85
2023/04/07 04:36:58;;;;;;;6.88;4.10;;;12.10;76.50;;;;;;4923029;29;20043;-83
2023/04/07 04:39:24;;;;;;;7.07;4.40;;;12.10;76.50;;;;;;4923789;29;20020;-83
2023/04/07 04:41:49;;;;;;;6.97;4.40;;;12.00;76.50;;;;;;4904561;29;20508;-83
2023/04/07 04:44:15;;;;;;;7.03;4.57;;;12.10;76.50;;;;;;4904399;29;20080;-81
2023/04/07 04:46:40;;;;;;;7.18;4.43;;;12.10;76.50;;;;;;4901877;29;20123;-82
2023/04/07 04:49:06;;;;;;;7.57;4.70;;;12.10;76.50;;;;;;4902412;29;20031;-82
2023/04/07 04:51:31;;;;;;;6.35;3.97;;;12.10;76.60;;;;;;4929101;29;20032;-83
2023/04/07 04:53:57;;;;;;;6.55;3.92;;;12.10;76.60;;;;;;4923385;29;20134;-83
2023/04/07 04:56:22;;;;;;;6.57;4.22;;;12.10;76.60;;;;;;4922948;29;20087;-83
2023/04/07 04:58:48;;;;;;;6.68;4.40;;;12.10;76.70;;;;;;4922662;29;20429;-83
2023/04/07 05:01:13;;;;;;;6.82;4.30;;;12.00;76.60;;;;;;4922673;29;20114;-84
2023/04/07 05:03:39;;;;;;;6.70;4.28;;;12.10;76.70;;;;;;4920792;29;20504;-83
2023/04/07 05:06:05;;;;;;;6.65;4.30;;;12.10;76.60;;;;;;4920905;29;20030;-83
2023/04/07 05:08:31;;;;;;;7.15;4.40;;;12.10;76.70;;;;;;4938226;29;20027;-81
2023/04/07 05:10:57;;;;;;;6.55;4.03;;;12.00;76.70;;;;;;4919522;29;20031;-78
2023/04/07 05:13:22;;;;;;;6.50;4.03;;;12.00;76.60;;;;;;4924498;29;20126;-79
2023/04/07 05:15:48;;;;;;;7.20;4.43;;;12.10;76.70;;;;;;4953407;29;20495;-79
2023/04/07 05:18:13;;;;;;;7.10;4.43;;;12.10;76.70;;;;;;4953635;29;20086;-79
2023/04/07 05:20:39;;;;;;;6.75;4.32;;;12.10;76.70;;;;;;4953303;29;20400;-79
2023/04/07 05:23:05;;;;;;;6.45;4.20;;;12.20;76.80;;;;;;4947053;29;20043;-81
2023/04/07 05:25:32;;;;;;;6.57;4.25;;;12.00;76.60;;;;;;4934061;29;20750;-78
2023/04/07 05:27:58;;;;;;;7.75;4.40;;;12.10;76.70;;;;;;4933507;29;20162;-79
2023/04/07 05:30:24;;;;;;;6.47;4.15;;;12.00;76.60;;;;;;4917442;29;20031;-80
2023/04/07 05:32:51;;;;;;;6.63;4.10;;;12.10;76.60;;;;;;4933451;29;20032;-83
2023/04/07 05:35:17;;;;;;;6.50;4.15;;;12.10;76.70;;;;;;4933676;29;20034;-81
2023/04/07 05:37:42;;;;;;;6.70;4.20;;;12.10;76.70;;;;;;4933716;29;20114;-81
2023/04/07 05:40:08;;;;;;;7.28;4.20;;;12.10;76.70;;;;;;4918405;29;20121;-80
2023/04/07 05:42:34;;;;;;;6.53;4.00;;;12.10;76.70;;;;;;4934096;29;20042;-80
2023/04/07 05:45:01;;;;;;;6.43;4.00;;;12.10;76.70;;;;;;4933654;29;20751;-79
2023/04/07 05:47:27;;;;;;;7.25;4.47;;;12.10;76.70;;;;;;4937113;29;20095;-82
2023/04/07 05:50:02;;;;;;;6.60;4.07;;;12.10;76.70;;;;;;4926419;29;20333;-81
2023/04/07 05:52:28;;;;;;;6.82;4.25;;;12.10;76.70;;;;;;4934489;29;20070;-82
2023/04/07 05:54:56;;;;;;;6.97;4.10;;;12.90;77.10;;;;;;4934561;29;20024;-81
2023/04/07 05:57:29;;;;;;;7.32;4.40;;;12.10;76.80;;;;;;4934500;29;20059;-82
2023/04/07 05:59:58;;;;;;;6.70;4.18;;;12.10;76.80;;;;;;4934537;29;20039;-81
2023/04/07 06:02:29;;;;;;;7.07;4.35;;;12.00;76.80;;;;;;4933891;29;20034;-80
2023/04/07 06:05:09;;;;;;;;;;;;;;;;;;;;;
2023/04/07 06:07:46;;;;;;;10.35;4.43;;;12.00;76.70;;;;;;4935525;29;20046;-82
2023/04/07 06:10:12;;;;;;;6.68;4.45;;;12.00;76.80;;;;;;4933487;29;20450;-81
2023/04/07 06:12:44;;;;;;;6.75;4.10;;;12.00;76.70;;;;;;4933634;29;20070;-81
2023/04/07 06:18:28;;;;;;;6.53;4.10;;;12.10;76.90;;;;;;4868867;29;20036;-80
2023/04/07 06:21:00;;;;;;;7.05;4.47;;;12.00;76.80;;;;;;4869895;29;20042;-80
2023/04/07 06:23:31;;;;;;;6.75;4.20;;;12.20;76.80;;;;;;4916597;29;20055;-83
2023/04/07 06:25:56;;;;;;;6.60;4.00;;;12.50;77.00;;;;;;4932002;29;20024;-80
2023/04/07 06:29:02;;;;;;;6.65;4.03;;;11.70;76.40;;;;;;4933847;29;20050;-82
2023/04/07 06:39:37;;;;;;;6.70;4.28;;;12.10;76.70;;;;;;4886266;29;20048;-85
2023/04/07 06:49:18;;;;;;;6.35;4.13;;;12.10;76.70;;;;;;4935450;29;20065;-83
2023/04/07 06:52:03;;;;;;;6.63;4.28;;;12.00;76.60;;;;;;4917291;29;20051;-80
2023/04/07 06:54:29;;;;;;;7.18;4.32;;;12.50;76.90;;;;;;4917781;29;20670;-78
2023/04/07 06:56:56;;;;;;;6.07;3.60;;;12.40;76.80;;;;;;4932810;29;20035;-79
2023/04/07 06:59:21;;;;;;;6.40;4.20;;;12.10;76.60;;;;;;4931470;29;20027;-80
2023/04/07 07:01:48;;;;;;;7.20;4.20;;;12.10;76.60;;;;;;4953875;29;20031;-79
2023/04/07 07:04:13;;;;;;;6.82;4.32;;;12.10;76.60;;;;;;4935641;29;20035;-81
2023/04/07 07:06:39;;;;;;;6.90;4.05;;;12.10;76.70;;;;;;4952146;29;20034;-80
2023/04/07 07:09:04;;;;;;;6.80;3.92;;;12.10;76.70;;;;;;4936300;29;20032;-81
2023/04/07 07:11:30;;;;;;;6.95;4.22;;;12.10;76.60;;;;;;4935691;29;20079;-81
2023/04/07 07:13:55;;;;;;;6.18;3.90;;;12.10;76.60;;;;;;4935876;29;20027;-84
2023/04/07 07:16:22;;;;;;;6.75;3.90;;;12.10;76.60;;;;;;4935539;29;20152;-84
2023/04/07 07:18:48;;;;;;;6.55;4.03;;;12.10;76.60;;;;;;4935863;29;20870;-80
2023/04/07 07:21:14;;;;;;;6.55;3.80;;;12.10;76.60;;;;;;4935341;29;20035;-79
2023/04/07 07:23:39;;;;;;;6.38;3.75;;;12.20;76.60;;;;;;4935557;29;20042;-83
2023/04/07 07:26:07;;;;;;;6.15;3.95;;;12.20;76.60;;;;;;4935034;29;20027;-81
2023/04/07 07:28:33;;;;;;;6.20;4.00;;;12.10;76.50;;;;;;4934488;29;20440;-82
2023/04/07 07:30:58;;;;;;;6.15;3.85;;;12.10;76.50;;;;;;4934285;29;20035;-78
2023/04/07 07:33:25;;;;;;;6.50;4.28;;;12.20;76.60;;;;;;4933860;29;20034;-79
2023/04/07 07:35:50;;;;;;;6.25;4.07;;;12.10;76.50;;;;;;4934258;29;20066;-80
2023/04/07 07:38:16;;;;;;;6.50;4.20;;;12.10;76.50;;;;;;4934414;29;20122;-81
2023/04/07 07:40:41;;;;;;;6.07;4.00;;;12.10;76.50;;;;;;4951490;29;20106;-82
2023/04/07 07:43:20;;;;;;;;;;;;;;;;;;;;;
2023/04/07 07:45:46;;;;;;;6.60;4.03;;;12.20;76.50;;;;;;4952247;29;20030;-81
2023/04/07 07:48:11;;;;;;;6.10;3.90;;;12.10;76.40;;;;;;4934015;29;20118;-78
2023/04/07 07:50:37;;;;;;;6.88;4.35;;;12.20;76.40;;;;;;4933051;28;20038;-77
2023/04/07 07:53:02;;;;;;;6.72;4.28;;;12.20;76.40;;;;;;4933652;28;20050;-77
2023/04/07 07:55:28;;;;;;;6.80;4.30;;;13.30;77.00;;;;;;4936055;29;20408;-78
2023/04/07 07:57:56;;;;;;;6.65;4.25;;;12.90;76.60;;;;;;4937403;29;20082;-85
2023/04/07 08:00:22;;;;;;;6.95;4.30;;;12.80;76.60;;;;;;4937517;29;20027;-76
2023/04/07 08:02:48;;;;;;;5.95;3.65;;;13.00;76.60;;;;;;4936921;29;20044;-79
2023/04/07 08:05:14;;;;;;;6.45;4.40;;;13.10;76.50;;;;;;4954137;28;20027;-79
2023/04/07 08:11:07;;;;;;;;;;;;;;;;;;;;;
2023/04/07 08:16:30;;;;;;;6.28;3.90;;;13.10;76.00;;;;;;4935465;29;20113;-78
2023/04/07 08:22:36;;;;;;;6.25;3.85;;;12.50;75.50;;;;;;4876370;29;20025;-78
2023/04/07 08:28:19;;;;;;;6.22;3.80;;;12.60;75.30;;;;;;4819783;29;20042;-83
2023/04/07 08:30:53;;;;;;;6.00;3.75;;;13.80;76.00;;;;;;4896500;29;20033;-81
2023/04/07 08:33:27;;;;;;;5.90;3.38;;;12.60;75.30;;;;;;4883593;29;20040;-80
2023/04/07 08:36:13;;;;;;;6.20;3.83;;;12.50;75.30;;;;;;4900554;29;20527;-81
2023/04/07 08:38:45;;;;;;;5.40;3.22;;;12.50;75.40;;;;;;4920166;29;20032;-80
2023/04/07 08:51:56;;;;;;;5.57;3.47;;;12.50;75.60;;;;;;5004414;23;20156;-81
2023/04/07 08:54:23;;;;;;;6.15;3.83;;;12.40;75.60;;;;;;4939782;29;20042;-84
2023/04/07 08:56:49;;;;;;;5.50;3.30;;;12.50;75.70;;;;;;4939710;29;20460;-83
2023/04/07 08:59:28;;;;;;;;;;;;;;;;;;;;;
2023/04/07 09:02:04;;;;;;;5.57;3.40;;;13.50;76.10;;;;;;4961236;29;20110;-78
2023/04/07 09:04:56;;;;;;;5.30;3.10;;;12.60;75.70;;;;;;4942563;28;20125;-83
2023/04/07 09:07:45;;;;;;;6.10;3.70;;;13.70;76.30;;;;;;4941237;29;20038;-82
2023/04/07 09:10:10;;;;;;;5.60;3.70;;;13.10;76.00;;;;;;4911826;29;20571;-80
2023/04/07 09:12:37;;;;;;;5.43;3.38;;;12.50;75.70;;;;;;4937405;29;20031;-78
2023/04/07 09:15:04;;;;;;;5.70;3.80;;;12.50;75.70;;;;;;4937442;29;20030;-80
2023/04/07 09:17:32;;;;;;;5.32;3.33;;;12.50;75.70;;;;;;4938155;29;20650;-81
2023/04/07 09:19:59;;;;;;;5.28;3.20;;;12.50;75.70;;;;;;4939187;29;20440;-83
2023/04/07 09:22:36;;;;;;;5.80;3.60;;;12.60;75.80;;;;;;4941880;29;20859;-80
2023/04/07 09:25:18;;;;;;;5.72;3.42;;;12.50;75.80;;;;;;4942887;29;20031;-82
2023/04/07 09:28:03;;;;;;;5.68;3.63;;;12.50;75.80;;;;;;4939487;29;20058;-84
2023/04/07 09:30:31;;;;;;;5.78;3.67;;;12.50;75.80;;;;;;4939386;29;20396;-81
2023/04/07 09:32:57;;;;;;;5.97;3.67;;;12.50;75.80;;;;;;4937355;29;20031;-82
2023/04/07 09:35:23;;;;;;;5.95;3.58;;;12.50;75.80;;;;;;4954275;29;20027;-81
2023/04/07 09:38:02;;;;;;;5.80;3.67;;;12.50;75.80;;;;;;4936965;29;20447;-84
2023/04/07 09:40:28;;;;;;;4.75;3.10;;;12.50;75.80;;;;;;4936274;29;20066;-81
2023/04/07 09:42:53;;;;;;;5.43;3.45;;;12.50;75.80;;;;;;4936570;29;20031;-82
2023/04/07 09:45:26;;;;;;;5.53;3.25;;;12.50;75.80;;;;;;4936805;29;20037;-84
2023/04/07 09:47:52;;;;;;;5.18;3.20;;;12.50;75.70;;;;;;4935214;29;20023;-82
2023/04/07 09:50:31;;;;;;;5.95;3.63;;;12.50;75.70;;;;;;4951869;29;20041;-82
2023/04/07 09:52:57;;;;;;;4.63;2.95;;;12.50;75.70;;;;;;4934774;29;20043;-83
2023/04/07 09:55:24;;;;;;;5.30;3.03;;;12.50;75.70;;;;;;4935096;29;20038;-85
2023/04/07 09:57:50;;;;;;;5.90;3.45;;;12.50;75.70;;;;;;4940376;29;20026;-87
2023/04/07 10:00:16;;;;;;;4.93;3.13;;;12.40;75.70;;;;;;4950556;29;20201;-85
2023/04/07 10:02:42;;;;;;;5.32;3.17;;;12.50;75.80;;;;;;4941012;29;20492;-84
2023/04/07 10:05:09;;;;;;;5.72;3.38;;;12.50;75.80;;;;;;4939362;29;20027;-84
2023/04/07 10:07:35;;;;;;;5.57;3.47;;;12.40;75.80;;;;;;4939333;29;20027;-85
2023/04/07 10:10:01;;;;;;;5.35;3.35;;;12.50;75.80;;;;;;4938915;29;20051;-85
2023/04/07 10:12:28;;;;;;;5.78;3.33;;;12.50;75.80;;;;;;4938831;29;20038;-83
2023/04/07 10:14:54;;;;;;;5.65;3.30;;;12.60;75.70;;;;;;4955563;29;20027;-81
2023/04/07 10:17:21;;;;;;;4.80;3.05;;;12.60;75.60;;;;;;4938165;29;20476;-82
2023/04/07 10:19:48;;;;;;;4.78;2.88;;;12.70;75.40;;;;;;4938121;29;20098;-82
2023/04/07 10:22:15;;;;;;;5.07;2.83;;;12.70;75.30;;;;;;4938116;29;20042;-83
2023/04/07 10:24:54;;;;;;;5.07;3.05;;;12.70;75.10;;;;;;4937435;29;20030;-83
2023/04/07 10:27:50;;;;;;;4.80;2.90;;;12.80;75.00;;;;;;4936604;29;20031;-82
2023/04/07 10:30:26;;;;;;;5.60;3.35;;;12.80;74.80;;;;;;4922029;29;20028;-82
2023/04/07 10:32:53;;;;;;;5.22;3.10;;;12.90;74.80;;;;;;4933575;29;20094;-83
2023/04/07 10:35:19;;;;;;;5.25;3.03;;;12.90;74.80;;;;;;4934356;29;20412;-81
2023/04/07 10:38:07;;;;;;;5.15;3.10;;;12.90;74.60;;;;;;4954474;29;20087;-81
2023/04/07 10:40:33;;;;;;;5.32;3.17;;;12.90;74.60;;;;;;4938061;29;20501;-84
2023/04/07 10:42:59;;;;;;;6.25;3.10;;;13.00;74.60;;;;;;4937861;29;20039;-83
2023/04/07 10:45:47;;;;;;;5.60;3.42;;;13.10;74.40;;;;;;4936049;29;20097;-81
2023/04/07 10:48:15;;;;;;;5.70;3.40;;;13.10;74.20;;;;;;4936501;29;20027;-83
2023/04/07 10:50:41;;;;;;;6.57;3.30;;;13.10;74.10;;;;;;4936875;29;20020;-83
2023/04/07 10:53:11;;;;;;;4.90;2.90;;;13.20;74.00;;;;;;4954881;29;20500;-83
2023/04/07 10:55:38;;;;;;;5.35;3.15;;;13.20;73.90;;;;;;4937330;29;20094;-82
2023/04/07 10:58:23;;;;;;;5.95;3.35;;;13.20;73.80;;;;;;4936250;29;20404;-83
2023/04/07 11:01:08;;;;;;;6.22;3.42;;;13.30;73.80;;;;;;4935513;29;20027;-82
2023/04/07 11:03:34;;;;;;;5.82;3.15;;;13.30;73.70;;;;;;4952230;29;20038;-81
2023/04/07 11:06:11;;;;;;;6.03;3.30;;;13.30;73.70;;;;;;4935429;29;20090;-81
2023/04/07 11:08:45;;;;;;;6.97;3.42;;;13.30;73.70;;;;;;4952867;29;20023;-81
2023/04/07 11:11:13;;;;;;;5.07;2.92;;;13.30;73.70;;;;;;4936543;29;20031;-82
2023/04/07 11:13:42;;;;;;;5.18;3.05;;;13.30;73.70;;;;;;4955222;29;20480;-82
2023/04/07 11:16:09;;;;;;;4.65;2.90;;;13.30;73.80;;;;;;4937017;29;20732;-81
2023/04/07 11:18:36;;;;;;;5.93;3.05;;;13.40;73.90;;;;;;4953419;29;20031;-85
2023/04/07 11:21:02;;;;;;;5.65;3.30;;;13.30;73.80;;;;;;4937039;29;20408;-81
2023/04/07 11:23:28;;;;;;;6.40;3.33;;;13.40;73.90;;;;;;4936296;29;20489;-85
2023/04/07 11:26:01;;;;;;;4.95;2.88;;;13.30;73.80;;;;;;4936343;29;20114;-82
2023/04/07 11:28:28;;;;;;;4.53;2.67;;;13.40;74.00;;;;;;4935886;29;20038;-81
2023/04/07 11:30:55;;;;;;;6.35;3.20;;;13.30;73.90;;;;;;4941080;29;20027;-83
2023/04/07 11:33:23;;;;;;;5.63;3.13;;;13.40;74.00;;;;;;4941021;29;20038;-83
2023/04/07 11:35:54;;;;;;;5.78;3.30;;;13.40;73.90;;;;;;4940951;29;20031;-82
2023/04/07 11:38:26;;;;;;;5.47;3.25;;;13.40;74.00;;;;;;4939884;29;20027;-80
2023/04/07 11:40:52;;;;;;;;;;;13.40;73.90;;;;;;4939854;28;20066;-86
2023/04/07 11:43:26;;;;;;;4.93;2.85;;;13.40;73.90;;;;;;4936584;29;19918;-81
2023/04/07 11:46:14;;;;;;;5.72;3.08;;;13.40;73.90;;;;;;4938952;29;20536;-80
2023/04/07 11:48:42;;;;;;;5.38;3.22;;;13.40;74.00;;;;;;4956378;29;20122;-82
2023/04/07 11:51:22;;;;;;;4.75;3.00;;;13.40;73.90;;;;;;4955605;29;20547;-81
2023/04/07 11:53:54;;;;;;;4.75;2.88;;;13.40;73.90;;;;;;4938525;29;20046;-80
2023/04/07 11:56:21;;;;;;;5.32;3.03;;;13.40;74.10;;;;;;4938183;29;20039;-84
2023/04/07 11:58:54;;;;;;;5.30;3.28;;;13.40;74.10;;;;;;4937860;29;20027;-82
2023/04/07 12:01:20;;;;;;;5.70;3.30;;;13.40;74.00;;;;;;4938971;29;20953;-81
2023/04/07 12:03:58;;;;;;;5.07;2.92;;;13.40;74.50;;;;;;4955388;29;20034;-83
2023/04/07 12:06:37;;;;;;;5.60;3.10;;;13.30;74.10;;;;;;4937956;29;20105;-82
2023/04/07 12:09:04;;;;;;;4.57;2.90;;;13.30;74.20;;;;;;4937775;29;20122;-81
2023/04/07 12:11:30;;;;;;;4.95;2.90;;;13.30;74.20;;;;;;4941010;29;20023;-82
2023/04/07 12:13:56;;;;;;;6.22;3.15;;;13.30;74.20;;;;;;4943020;29;20090;-81
2023/04/07 12:16:22;;;;;;;4.95;2.88;;;13.30;74.20;;;;;;4943164;29;20035;-82
2023/04/07 12:18:50;;;;;;;5.88;3.17;;;13.20;74.30;;;;;;4942335;29;20042;-83
2023/04/07 12:21:16;;;;;;;5.28;2.90;;;13.20;74.40;;;;;;4942914;29;20062;-82
2023/04/07 12:23:42;;;;;;;5.10;3.08;;;13.40;74.50;;;;;;4939570;29;20031;-81
2023/04/07 12:26:09;;;;;;;4.50;2.75;;;13.30;74.40;;;;;;4937996;29;20039;-80
2023/04/07 12:28:35;;;;;;;4.85;2.83;;;13.30;74.30;;;;;;4937303;29;20162;-82
2023/04/07 12:31:01;;;;;;;4.72;2.80;;;13.30;74.30;;;;;;4940149;29;20067;-84
2023/04/07 12:33:27;;;;;;;4.90;3.03;;;13.30;74.20;;;;;;4951399;29;20392;-84
2023/04/07 12:35:53;;;;;;;4.90;2.97;;;13.30;74.20;;;;;;4947663;29;20039;-81
2023/04/07 12:38:19;;;;;;;4.90;3.00;;;13.20;74.30;;;;;;4947281;29;20082;-82
2023/04/07 12:40:45;;;;;;;4.68;2.90;;;13.30;74.50;;;;;;4945481;29;20090;-83
2023/04/07 12:43:11;;;;;;;5.10;3.05;;;13.30;74.40;;;;;;4945461;29;20028;-81
2023/04/07 12:45:37;;;;;;;6.18;3.28;;;13.30;74.30;;;;;;4944706;29;20831;-83
2023/04/07 12:48:03;;;;;;;4.68;2.75;;;13.30;74.40;;;;;;4962554;29;20020;-83
2023/04/07 12:50:29;;;;;;;5.28;2.90;;;13.20;74.30;;;;;;4945058;29;20031;-80
2023/04/07 12:52:55;;;;;;;4.70;3.00;;;13.20;74.30;;;;;;4944857;29;20043;-81
2023/04/07 12:55:20;;;;;;;4.40;2.70;;;13.20;74.40;;;;;;4939445;29;20512;-79
2023/04/07 12:57:47;;;;;;;5.28;3.03;;;13.20;74.50;;;;;;4939894;29;20096;-83
2023/04/07 13:00:13;;;;;;;5.57;3.28;;;13.20;74.50;;;;;;4938154;29;20066;-80
2023/04/07 13:02:39;;;;;;;5.07;3.00;;;13.20;74.60;;;;;;4938303;29;20078;-83
2023/04/07 13:05:05;;;;;;;5.40;3.00;;;13.20;74.50;;;;;;4941615;29;20070;-80
2023/04/07 13:07:30;;;;;;;6.05;3.00;;;13.30;74.50;;;;;;4941029;29;20033;-81
2023/04/07 13:09:56;;;;;;;5.43;3.17;;;13.20;74.40;;;;;;4937781;29;20366;-85
2023/04/07 13:12:22;;;;;;;6.05;2.92;;;13.30;74.40;;;;;;4939030;29;20070;-85
2023/04/07 13:14:48;;;;;;;4.93;2.88;;;13.20;74.40;;;;;;4938655;29;20078;-85
2023/04/07 13:17:13;;;;;;;5.95;2.90;;;13.20;74.40;;;;;;4937925;29;20429;-81
2023/04/07 13:19:39;;;;;;;5.60;3.10;;;13.20;74.90;;;;;;4938494;29;20035;-84
2023/04/07 13:22:04;;;;;;;4.93;2.97;;;13.20;74.40;;;;;;4942884;28;20019;-83
2023/04/07 13:24:30;;;;;;;5.22;3.03;;;13.20;74.40;;;;;;4950198;29;20111;-84
2023/04/07 13:26:56;;;;;;;5.40;3.13;;;13.20;74.40;;;;;;4939309;29;20410;-82
2023/04/07 13:29:22;;;;;;;5.32;3.22;;;13.20;74.50;;;;;;4938841;29;20031;-80
2023/04/07 13:31:48;;;;;;;5.43;2.83;;;13.20;74.50;;;;;;4937637;29;20042;-79
2023/04/07 13:34:17;;;;;;;5.22;2.97;;;13.20;74.50;;;;;;4956454;29;20102;-83
2023/04/07 13:37:04;;;;;;;5.28;3.08;;;13.20;74.60;;;;;;4940733;29;20027;-85
2023/04/07 13:39:30;;;;;;;5.05;2.92;;;13.20;74.50;;;;;;4956485;29;20050;-82